sensor_id;sensor_type;location;lat;lon;timestamp;P1;durP1;ratioP1;P2;durP2;ratioP2
1366;SDS011;16877;48.810;9.282;2024-02-14T00:01:18;7.30;;;4.97;;
1366;SDS011;16877;48.810;9.282;2024-02-14T00:03:45;6.77;;;5.40;;
1366;SDS011;16877;48.810;9.282;2024-02-14T00:06:12;9.90;;;5.33;;
1366;SDS011;16877;48.810;9.282;2024-02-14T00:08:39;9.60;;;5.30;;
1366;SDS011;16877;48.810;9.282;2024-02-14T00:11:06;8.07;;;4.97;;
1366;SDS011;16877;48.810;9.282;2024-02-14T00:13:32;5.80;;;4.63;;
1366;SDS011;16877;48.810;9.282;2024-02-14T00:16:01;6.40;;;4.80;;
1366;SDS011;16877;48.810;9.282;2024-02-14T00:18:28;6.80;;;4.67;;
1366;SDS011;16877;48.810;9.282;2024-02-14T00:20:55;6.57;;;4.90;;
1366;SDS011;16877;48.810;9.282;2024-02-14T00:23:22;7.93;;;5.07;;
1366;SDS011;16877;48.810;9.282;2024-02-14T00:25:48;6.80;;;4.33;;
1366;SDS011;16877;48.810;9.282;2024-02-14T00:28:15;7.50;;;5.50;;
1366;SDS011;16877;48.810;9.282;2024-02-14T00:30:42;5.97;;;4.60;;
1366;SDS011;16877;48.810;9.282;2024-02-14T00:33:11;7.40;;;5.00;;
1366;SDS011;16877;48.810;9.282;2024-02-14T00:35:37;7.10;;;5.27;;
1366;SDS011;16877;48.810;9.282;2024-02-14T00:38:04;10.90;;;4.90;;
1366;SDS011;16877;48.810;9.282;2024-02-14T00:40:31;7.90;;;5.23;;
1366;SDS011;16877;48.810;9.282;2024-02-14T00:42:58;5.63;;;4.70;;
1366;SDS011;16877;48.810;9.282;2024-02-14T00:45:24;5.47;;;4.30;;
1366;SDS011;16877;48.810;9.282;2024-02-14T00:47:51;6.17;;;3.50;;
1366;SDS011;16877;48.810;9.282;2024-02-14T00:50:19;4.73;;;3.90;;
1366;SDS011;16877;48.810;9.282;2024-02-14T00:52:46;5.30;;;3.40;;
1366;SDS011;16877;48.810;9.282;2024-02-14T00:55:13;5.60;;;4.07;;
1366;SDS011;16877;48.810;9.282;2024-02-14T00:57:40;4.77;;;3.40;;
1366;SDS011;16877;48.810;9.282;2024-02-14T01:00:07;7.20;;;3.60;;
1366;SDS011;16877;48.810;9.282;2024-02-14T01:02:34;4.60;;;3.17;;
1366;SDS011;16877;48.810;9.282;2024-02-14T01:05:01;6.57;;;4.00;;
1366;SDS011;16877;48.810;9.282;2024-02-14T01:07:30;4.30;;;3.17;;
1366;SDS011;16877;48.810;9.282;2024-02-14T01:09:57;5.23;;;4.00;;
1366;SDS011;16877;48.810;9.282;2024-02-14T01:12:24;5.23;;;3.63;;
1366;SDS011;16877;48.810;9.282;2024-02-14T01:14:50;6.13;;;3.90;;
1366;SDS011;16877;48.810;9.282;2024-02-14T01:17:17;7.90;;;4.30;;
1366;SDS011;16877;48.810;9.282;2024-02-14T01:19:44;6.67;;;4.40;;
1366;SDS011;16877;48.810;9.282;2024-02-14T01:22:10;4.50;;;3.63;;
1366;SDS011;16877;48.810;9.282;2024-02-14T01:24:42;5.33;;;3.60;;
1366;SDS011;16877;48.810;9.282;2024-02-14T01:27:10;4.67;;;3.43;;
1366;SDS011;16877;48.810;9.282;2024-02-14T01:29:36;4.90;;;3.70;;
1366;SDS011;16877;48.810;9.282;2024-02-14T01:32:03;5.17;;;3.50;;
1366;SDS011;16877;48.810;9.282;2024-02-14T01:34:31;5.47;;;3.70;;
1366;SDS011;16877;48.810;9.282;2024-02-14T01:36:58;7.80;;;3.37;;
1366;SDS011;16877;48.810;9.282;2024-02-14T01:39:25;6.40;;;3.40;;
1366;SDS011;16877;48.810;9.282;2024-02-14T01:41:53;5.60;;;3.23;;
1366;SDS011;16877;48.810;9.282;2024-02-14T01:44:20;4.93;;;3.40;;
1366;SDS011;16877;48.810;9.282;2024-02-14T01:46:47;5.37;;;2.90;;
1366;SDS011;16877;48.810;9.282;2024-02-14T01:49:14;5.57;;;3.50;;
1366;SDS011;16877;48.810;9.282;2024-02-14T01:51:42;5.13;;;3.17;;
1366;SDS011;16877;48.810;9.282;2024-02-14T01:54:10;6.13;;;3.80;;
1366;SDS011;16877;48.810;9.282;2024-02-14T01:56:37;6.70;;;3.40;;
1366;SDS011;16877;48.810;9.282;2024-02-14T01:59:06;5.03;;;3.10;;
1366;SDS011;16877;48.810;9.282;2024-02-14T02:01:33;7.00;;;4.10;;
1366;SDS011;16877;48.810;9.282;2024-02-14T02:04:00;5.77;;;3.33;;
1366;SDS011;16877;48.810;9.282;2024-02-14T02:06:27;5.10;;;2.73;;
1366;SDS011;16877;48.810;9.282;2024-02-14T02:08:55;4.27;;;2.47;;
1366;SDS011;16877;48.810;9.282;2024-02-14T02:11:25;4.03;;;2.80;;
1366;SDS011;16877;48.810;9.282;2024-02-14T02:13:52;5.00;;;3.27;;
1366;SDS011;16877;48.810;9.282;2024-02-14T02:16:21;4.90;;;2.90;;
1366;SDS011;16877;48.810;9.282;2024-02-14T02:18:48;4.00;;;2.60;;
1366;SDS011;16877;48.810;9.282;2024-02-14T02:21:15;4.43;;;2.80;;
1366;SDS011;16877;48.810;9.282;2024-02-14T02:23:46;5.23;;;3.23;;
1366;SDS011;16877;48.810;9.282;2024-02-14T02:26:13;6.40;;;3.30;;
1366;SDS011;16877;48.810;9.282;2024-02-14T02:28:40;5.10;;;2.57;;
1366;SDS011;16877;48.810;9.282;2024-02-14T02:31:07;4.60;;;2.67;;
1366;SDS011;16877;48.810;9.282;2024-02-14T02:33:35;6.40;;;3.00;;
1366;SDS011;16877;48.810;9.282;2024-02-14T02:36:02;6.30;;;2.80;;
1366;SDS011;16877;48.810;9.282;2024-02-14T02:38:29;7.27;;;2.57;;
1366;SDS011;16877;48.810;9.282;2024-02-14T02:40:57;5.70;;;2.90;;
1366;SDS011;16877;48.810;9.282;2024-02-14T02:43:25;5.97;;;2.60;;
1366;SDS011;16877;48.810;9.282;2024-02-14T02:45:53;5.10;;;3.20;;
1366;SDS011;16877;48.810;9.282;2024-02-14T02:48:20;5.10;;;2.63;;
1366;SDS011;16877;48.810;9.282;2024-02-14T02:50:48;3.80;;;2.20;;
1366;SDS011;16877;48.810;9.282;2024-02-14T02:53:15;5.77;;;2.60;;
1366;SDS011;16877;48.810;9.282;2024-02-14T02:55:42;5.80;;;2.63;;
1366;SDS011;16877;48.810;9.282;2024-02-14T02:58:11;4.50;;;2.50;;
1366;SDS011;16877;48.810;9.282;2024-02-14T03:00:38;4.40;;;2.70;;
1366;SDS011;16877;48.810;9.282;2024-02-14T03:03:07;5.90;;;2.50;;
1366;SDS011;16877;48.810;9.282;2024-02-14T03:05:34;4.30;;;2.87;;
1366;SDS011;16877;48.810;9.282;2024-02-14T03:08:01;4.27;;;2.50;;
1366;SDS011;16877;48.810;9.282;2024-02-14T03:10:28;3.80;;;2.80;;
1366;SDS011;16877;48.810;9.282;2024-02-14T03:12:55;6.90;;;3.23;;
1366;SDS011;16877;48.810;9.282;2024-02-14T03:15:24;6.20;;;3.40;;
1366;SDS011;16877;48.810;9.282;2024-02-14T03:17:51;5.53;;;2.63;;
1366;SDS011;16877;48.810;9.282;2024-02-14T03:20:18;5.00;;;2.40;;
1366;SDS011;16877;48.810;9.282;2024-02-14T03:22:45;8.67;;;3.07;;
1366;SDS011;16877;48.810;9.282;2024-02-14T03:25:12;5.10;;;3.10;;
1366;SDS011;16877;48.810;9.282;2024-02-14T03:27:40;4.10;;;2.43;;
1366;SDS011;16877;48.810;9.282;2024-02-14T03:30:07;4.33;;;2.67;;
1366;SDS011;16877;48.810;9.282;2024-02-14T03:32:36;4.50;;;2.73;;
1366;SDS011;16877;48.810;9.282;2024-02-14T03:35:03;4.60;;;3.00;;
1366;SDS011;16877;48.810;9.282;2024-02-14T03:37:31;5.07;;;3.30;;
1366;SDS011;16877;48.810;9.282;2024-02-14T03:39:58;5.70;;;3.40;;
1366;SDS011;16877;48.810;9.282;2024-02-14T03:42:28;7.60;;;3.40;;
1366;SDS011;16877;48.810;9.282;2024-02-14T03:44:55;5.00;;;3.43;;
1366;SDS011;16877;48.810;9.282;2024-02-14T03:47:27;7.03;;;3.57;;
1366;SDS011;16877;48.810;9.282;2024-02-14T03:49:57;5.33;;;3.93;;
1366;SDS011;16877;48.810;9.282;2024-02-14T03:52:24;4.27;;;3.20;;
1366;SDS011;16877;48.810;9.282;2024-02-14T03:54:51;5.03;;;3.50;;
1366;SDS011;16877;48.810;9.282;2024-02-14T03:57:18;5.80;;;3.17;;
1366;SDS011;16877;48.810;9.282;2024-02-14T03:59:46;6.30;;;3.70;;
1366;SDS011;16877;48.810;9.282;2024-02-14T04:02:13;4.00;;;3.00;;
1366;SDS011;16877;48.810;9.282;2024-02-14T04:04:41;5.70;;;3.17;;
1366;SDS011;16877;48.810;9.282;2024-02-14T04:07:10;4.97;;;2.80;;
1366;SDS011;16877;48.810;9.282;2024-02-14T04:09:37;6.03;;;3.23;;
1366;SDS011;16877;48.810;9.282;2024-02-14T04:12:04;4.90;;;2.50;;
1366;SDS011;16877;48.810;9.282;2024-02-14T04:14:31;6.53;;;3.50;;
1366;SDS011;16877;48.810;9.282;2024-02-14T04:16:58;4.67;;;2.63;;
1366;SDS011;16877;48.810;9.282;2024-02-14T04:19:25;4.67;;;3.53;;
1366;SDS011;16877;48.810;9.282;2024-02-14T04:21:53;6.13;;;2.60;;
1366;SDS011;16877;48.810;9.282;2024-02-14T04:24:21;5.13;;;3.20;;
1366;SDS011;16877;48.810;9.282;2024-02-14T04:26:48;4.20;;;2.50;;
1366;SDS011;16877;48.810;9.282;2024-02-14T04:29:15;4.53;;;2.50;;
1366;SDS011;16877;48.810;9.282;2024-02-14T04:31:42;5.07;;;2.83;;
1366;SDS011;16877;48.810;9.282;2024-02-14T04:34:09;5.50;;;2.90;;
1366;SDS011;16877;48.810;9.282;2024-02-14T04:36:37;4.03;;;2.90;;
1366;SDS011;16877;48.810;9.282;2024-02-14T04:39:05;3.33;;;2.33;;
1366;SDS011;16877;48.810;9.282;2024-02-14T04:41:33;4.33;;;2.63;;
1366;SDS011;16877;48.810;9.282;2024-02-14T04:44:02;4.90;;;3.20;;
1366;SDS011;16877;48.810;9.282;2024-02-14T04:46:31;4.60;;;2.87;;
1366;SDS011;16877;48.810;9.282;2024-02-14T04:48:58;6.03;;;2.60;;
1366;SDS011;16877;48.810;9.282;2024-02-14T04:51:25;5.20;;;3.00;;
1366;SDS011;16877;48.810;9.282;2024-02-14T04:53:51;5.40;;;3.00;;
1366;SDS011;16877;48.810;9.282;2024-02-14T04:56:18;4.37;;;2.80;;
1366;SDS011;16877;48.810;9.282;2024-02-14T04:58:46;4.17;;;3.20;;
1366;SDS011;16877;48.810;9.282;2024-02-14T05:01:13;3.83;;;2.50;;
1366;SDS011;16877;48.810;9.282;2024-02-14T05:03:40;6.13;;;3.20;;
1366;SDS011;16877;48.810;9.282;2024-02-14T05:06:07;4.37;;;3.13;;
1366;SDS011;16877;48.810;9.282;2024-02-14T05:08:33;4.37;;;2.60;;
1366;SDS011;16877;48.810;9.282;2024-02-14T05:11:00;4.40;;;3.10;;
1366;SDS011;16877;48.810;9.282;2024-02-14T05:13:27;6.13;;;3.00;;
1366;SDS011;16877;48.810;9.282;2024-02-14T05:15:55;5.50;;;2.70;;
1366;SDS011;16877;48.810;9.282;2024-02-14T05:18:21;5.70;;;3.23;;
1366;SDS011;16877;48.810;9.282;2024-02-14T05:20:48;4.60;;;3.43;;
1366;SDS011;16877;48.810;9.282;2024-02-14T05:23:16;7.00;;;3.50;;
1366;SDS011;16877;48.810;9.282;2024-02-14T05:25:43;6.27;;;3.10;;
1366;SDS011;16877;48.810;9.282;2024-02-14T05:28:10;4.03;;;2.50;;
1366;SDS011;16877;48.810;9.282;2024-02-14T05:30:38;4.97;;;2.43;;
1366;SDS011;16877;48.810;9.282;2024-02-14T05:33:06;3.80;;;2.60;;
1366;SDS011;16877;48.810;9.282;2024-02-14T05:35:33;4.00;;;2.50;;
1366;SDS011;16877;48.810;9.282;2024-02-14T05:37:59;7.57;;;2.87;;
1366;SDS011;16877;48.810;9.282;2024-02-14T05:40:26;4.13;;;2.40;;
1366;SDS011;16877;48.810;9.282;2024-02-14T05:42:54;3.67;;;2.67;;
1366;SDS011;16877;48.810;9.282;2024-02-14T05:45:21;7.10;;;2.60;;
1366;SDS011;16877;48.810;9.282;2024-02-14T05:47:47;5.30;;;2.57;;
1366;SDS011;16877;48.810;9.282;2024-02-14T05:50:15;3.63;;;2.17;;
1366;SDS011;16877;48.810;9.282;2024-02-14T05:52:42;4.90;;;2.37;;
1366;SDS011;16877;48.810;9.282;2024-02-14T05:55:09;4.00;;;2.60;;
1366;SDS011;16877;48.810;9.282;2024-02-14T05:57:35;3.77;;;2.50;;
1366;SDS011;16877;48.810;9.282;2024-02-14T06:00:02;9.07;;;2.90;;
1366;SDS011;16877;48.810;9.282;2024-02-14T06:02:30;4.00;;;2.30;;
1366;SDS011;16877;48.810;9.282;2024-02-14T06:04:57;4.40;;;2.67;;
1366;SDS011;16877;48.810;9.282;2024-02-14T06:07:25;4.77;;;2.80;;
1366;SDS011;16877;48.810;9.282;2024-02-14T06:09:52;3.83;;;2.40;;
1366;SDS011;16877;48.810;9.282;2024-02-14T06:12:18;6.57;;;2.87;;
1366;SDS011;16877;48.810;9.282;2024-02-14T06:14:47;4.70;;;2.83;;
1366;SDS011;16877;48.810;9.282;2024-02-14T06:17:14;4.17;;;2.10;;
1366;SDS011;16877;48.810;9.282;2024-02-14T06:19:41;4.50;;;3.00;;
1366;SDS011;16877;48.810;9.282;2024-02-14T06:22:08;4.50;;;2.63;;
1366;SDS011;16877;48.810;9.282;2024-02-14T06:24:37;4.90;;;2.57;;
1366;SDS011;16877;48.810;9.282;2024-02-14T06:27:04;3.80;;;2.80;;
1366;SDS011;16877;48.810;9.282;2024-02-14T06:29:30;4.80;;;2.80;;
1366;SDS011;16877;48.810;9.282;2024-02-14T06:31:57;4.00;;;2.63;;
1366;SDS011;16877;48.810;9.282;2024-02-14T06:34:24;5.53;;;2.90;;
1366;SDS011;16877;48.810;9.282;2024-02-14T06:36:51;5.87;;;3.00;;
1366;SDS011;16877;48.810;9.282;2024-02-14T06:39:17;5.13;;;2.93;;
1366;SDS011;16877;48.810;9.282;2024-02-14T06:41:46;4.40;;;2.60;;
1366;SDS011;16877;48.810;9.282;2024-02-14T06:44:13;3.93;;;2.27;;
1366;SDS011;16877;48.810;9.282;2024-02-14T06:46:40;3.60;;;2.40;;
1366;SDS011;16877;48.810;9.282;2024-02-14T06:49:07;3.40;;;2.10;;
1366;SDS011;16877;48.810;9.282;2024-02-14T06:51:34;4.37;;;2.40;;
1366;SDS011;16877;48.810;9.282;2024-02-14T06:54:01;3.73;;;2.67;;
1366;SDS011;16877;48.810;9.282;2024-02-14T06:56:29;7.10;;;3.50;;
1366;SDS011;16877;48.810;9.282;2024-02-14T06:58:57;6.80;;;3.67;;
1366;SDS011;16877;48.810;9.282;2024-02-14T07:01:25;5.30;;;3.00;;
1366;SDS011;16877;48.810;9.282;2024-02-14T07:03:52;4.63;;;2.70;;
1366;SDS011;16877;48.810;9.282;2024-02-14T07:06:19;5.00;;;2.60;;
1366;SDS011;16877;48.810;9.282;2024-02-14T07:08:46;6.40;;;3.00;;
1366;SDS011;16877;48.810;9.282;2024-02-14T07:11:13;3.00;;;2.10;;
1366;SDS011;16877;48.810;9.282;2024-02-14T07:13:41;3.43;;;2.50;;
1366;SDS011;16877;48.810;9.282;2024-02-14T07:16:09;4.03;;;2.60;;
1366;SDS011;16877;48.810;9.282;2024-02-14T07:18:35;7.27;;;3.10;;
1366;SDS011;16877;48.810;9.282;2024-02-14T07:21:02;4.70;;;2.83;;
1366;SDS011;16877;48.810;9.282;2024-02-14T07:23:30;3.43;;;2.13;;
1366;SDS011;16877;48.810;9.282;2024-02-14T07:25:57;3.90;;;2.27;;
1366;SDS011;16877;48.810;9.282;2024-02-14T07:28:23;3.53;;;1.90;;
1366;SDS011;16877;48.810;9.282;2024-02-14T07:30:50;6.97;;;2.10;;
1366;SDS011;16877;48.810;9.282;2024-02-14T07:33:18;4.83;;;2.60;;
1366;SDS011;16877;48.810;9.282;2024-02-14T07:35:44;4.30;;;2.37;;
1366;SDS011;16877;48.810;9.282;2024-02-14T07:38:12;4.33;;;2.50;;
1366;SDS011;16877;48.810;9.282;2024-02-14T07:40:38;4.03;;;2.57;;
1366;SDS011;16877;48.810;9.282;2024-02-14T07:43:06;4.37;;;2.50;;
1366;SDS011;16877;48.810;9.282;2024-02-14T07:45:33;4.83;;;2.40;;
1366;SDS011;16877;48.810;9.282;2024-02-14T07:48:00;3.30;;;2.00;;
1366;SDS011;16877;48.810;9.282;2024-02-14T07:50:29;4.47;;;2.70;;
1366;SDS011;16877;48.810;9.282;2024-02-14T07:52:56;4.20;;;2.23;;
1366;SDS011;16877;48.810;9.282;2024-02-14T07:55:23;5.63;;;2.27;;
1366;SDS011;16877;48.810;9.282;2024-02-14T07:57:50;5.00;;;2.40;;
1366;SDS011;16877;48.810;9.282;2024-02-14T08:00:17;6.80;;;2.40;;
1366;SDS011;16877;48.810;9.282;2024-02-14T08:02:47;4.23;;;2.43;;
1366;SDS011;16877;48.810;9.282;2024-02-14T08:05:14;3.90;;;2.47;;
1366;SDS011;16877;48.810;9.282;2024-02-14T08:07:42;3.40;;;1.93;;
1366;SDS011;16877;48.810;9.282;2024-02-14T08:10:10;2.60;;;1.80;;
1366;SDS011;16877;48.810;9.282;2024-02-14T08:12:37;3.80;;;2.30;;
1366;SDS011;16877;48.810;9.282;2024-02-14T08:15:04;3.80;;;2.17;;
1366;SDS011;16877;48.810;9.282;2024-02-14T08:17:31;4.47;;;2.00;;
1366;SDS011;16877;48.810;9.282;2024-02-14T08:19:59;4.43;;;2.23;;
1366;SDS011;16877;48.810;9.282;2024-02-14T08:22:26;3.67;;;2.40;;
1366;SDS011;16877;48.810;9.282;2024-02-14T08:24:54;3.30;;;2.17;;
1366;SDS011;16877;48.810;9.282;2024-02-14T08:27:21;3.07;;;2.10;;
1366;SDS011;16877;48.810;9.282;2024-02-14T08:29:48;5.33;;;2.40;;
1366;SDS011;16877;48.810;9.282;2024-02-14T08:32:15;3.50;;;2.30;;
1366;SDS011;16877;48.810;9.282;2024-02-14T08:34:42;3.40;;;2.03;;
1366;SDS011;16877;48.810;9.282;2024-02-14T08:37:08;3.43;;;2.23;;
1366;SDS011;16877;48.810;9.282;2024-02-14T08:39:35;4.00;;;2.33;;
1366;SDS011;16877;48.810;9.282;2024-02-14T08:42:03;5.33;;;3.03;;
1366;SDS011;16877;48.810;9.282;2024-02-14T08:44:32;4.50;;;2.30;;
1366;SDS011;16877;48.810;9.282;2024-02-14T08:46:59;3.90;;;2.57;;
1366;SDS011;16877;48.810;9.282;2024-02-14T08:49:26;3.40;;;1.87;;
1366;SDS011;16877;48.810;9.282;2024-02-14T08:51:53;4.37;;;2.60;;
1366;SDS011;16877;48.810;9.282;2024-02-14T08:54:20;3.97;;;2.47;;
1366;SDS011;16877;48.810;9.282;2024-02-14T08:56:48;4.30;;;2.20;;
1366;SDS011;16877;48.810;9.282;2024-02-14T08:59:16;3.97;;;2.20;;
1366;SDS011;16877;48.810;9.282;2024-02-14T09:01:43;4.37;;;2.90;;
1366;SDS011;16877;48.810;9.282;2024-02-14T09:04:09;5.00;;;2.87;;
1366;SDS011;16877;48.810;9.282;2024-02-14T09:06:36;5.03;;;3.13;;
1366;SDS011;16877;48.810;9.282;2024-02-14T09:09:04;4.10;;;2.93;;
1366;SDS011;16877;48.810;9.282;2024-02-14T09:11:31;5.73;;;3.33;;
1366;SDS011;16877;48.810;9.282;2024-02-14T09:13:58;4.40;;;2.67;;
1366;SDS011;16877;48.810;9.282;2024-02-14T09:16:31;4.03;;;2.00;;
1366;SDS011;16877;48.810;9.282;2024-02-14T09:18:58;4.07;;;2.40;;
1366;SDS011;16877;48.810;9.282;2024-02-14T09:21:26;4.00;;;2.83;;
1366;SDS011;16877;48.810;9.282;2024-02-14T09:23:53;3.20;;;2.30;;
1366;SDS011;16877;48.810;9.282;2024-02-14T09:26:20;7.27;;;3.37;;
1366;SDS011;16877;48.810;9.282;2024-02-14T09:28:47;5.07;;;2.83;;
1366;SDS011;16877;48.810;9.282;2024-02-14T09:31:17;3.87;;;2.10;;
1366;SDS011;16877;48.810;9.282;2024-02-14T09:33:46;5.30;;;2.80;;
1366;SDS011;16877;48.810;9.282;2024-02-14T09:36:14;3.93;;;2.30;;
1366;SDS011;16877;48.810;9.282;2024-02-14T09:38:40;5.00;;;3.07;;
1366;SDS011;16877;48.810;9.282;2024-02-14T09:41:10;4.97;;;2.80;;
1366;SDS011;16877;48.810;9.282;2024-02-14T09:43:43;4.00;;;2.47;;
1366;SDS011;16877;48.810;9.282;2024-02-14T09:46:11;4.30;;;2.63;;
1366;SDS011;16877;48.810;9.282;2024-02-14T09:48:39;9.80;;;3.10;;
1366;SDS011;16877;48.810;9.282;2024-02-14T09:51:10;5.17;;;2.83;;
1366;SDS011;16877;48.810;9.282;2024-02-14T09:53:38;4.53;;;2.13;;
1366;SDS011;16877;48.810;9.282;2024-02-14T09:56:05;7.53;;;2.67;;
1366;SDS011;16877;48.810;9.282;2024-02-14T09:58:35;5.93;;;3.20;;
1366;SDS011;16877;48.810;9.282;2024-02-14T10:01:03;5.40;;;2.67;;
1366;SDS011;16877;48.810;9.282;2024-02-14T10:03:30;5.50;;;2.90;;
1366;SDS011;16877;48.810;9.282;2024-02-14T10:05:56;6.17;;;3.20;;
1366;SDS011;16877;48.810;9.282;2024-02-14T10:08:24;5.30;;;3.13;;
1366;SDS011;16877;48.810;9.282;2024-02-14T10:10:52;4.40;;;3.00;;
1366;SDS011;16877;48.810;9.282;2024-02-14T10:13:19;5.23;;;3.10;;
1366;SDS011;16877;48.810;9.282;2024-02-14T10:15:45;7.80;;;3.80;;
1366;SDS011;16877;48.810;9.282;2024-02-14T10:18:13;7.07;;;3.90;;
1366;SDS011;16877;48.810;9.282;2024-02-14T10:20:41;9.23;;;3.93;;
1366;SDS011;16877;48.810;9.282;2024-02-14T10:23:18;6.63;;;2.93;;
1366;SDS011;16877;48.810;9.282;2024-02-14T10:25:46;4.40;;;2.80;;
1366;SDS011;16877;48.810;9.282;2024-02-14T10:28:14;6.83;;;2.53;;
1366;SDS011;16877;48.810;9.282;2024-02-14T10:30:44;5.30;;;2.50;;
1366;SDS011;16877;48.810;9.282;2024-02-14T10:33:11;4.90;;;2.47;;
1366;SDS011;16877;48.810;9.282;2024-02-14T10:35:38;7.40;;;2.53;;
1366;SDS011;16877;48.810;9.282;2024-02-14T10:38:07;5.77;;;2.27;;
1366;SDS011;16877;48.810;9.282;2024-02-14T10:40:34;4.20;;;1.67;;
1366;SDS011;16877;48.810;9.282;2024-02-14T10:43:05;4.70;;;1.80;;
1366;SDS011;16877;48.810;9.282;2024-02-14T10:45:34;3.47;;;1.57;;
1366;SDS011;16877;48.810;9.282;2024-02-14T10:48:01;3.00;;;1.47;;
1366;SDS011;16877;48.810;9.282;2024-02-14T10:50:31;34.23;;;5.10;;
1366;SDS011;16877;48.810;9.282;2024-02-14T10:52:59;112.33;;;11.70;;
1366;SDS011;16877;48.810;9.282;2024-02-14T10:55:29;98.37;;;10.80;;
1366;SDS011;16877;48.810;9.282;2024-02-14T10:57:57;158.77;;;18.33;;
1366;SDS011;16877;48.810;9.282;2024-02-14T11:00:26;98.63;;;13.07;;
1366;SDS011;16877;48.810;9.282;2024-02-14T11:02:54;27.10;;;3.80;;
1366;SDS011;16877;48.810;9.282;2024-02-14T11:05:22;5.93;;;1.90;;
1366;SDS011;16877;48.810;9.282;2024-02-14T11:07:50;9.57;;;2.00;;
1366;SDS011;16877;48.810;9.282;2024-02-14T11:10:18;5.80;;;2.00;;
1366;SDS011;16877;48.810;9.282;2024-02-14T11:12:46;5.13;;;1.93;;
1366;SDS011;16877;48.810;9.282;2024-02-14T11:15:16;2.80;;;1.20;;
1366;SDS011;16877;48.810;9.282;2024-02-14T11:17:45;3.10;;;1.13;;
1366;SDS011;16877;48.810;9.282;2024-02-14T11:20:15;4.40;;;1.23;;
1366;SDS011;16877;48.810;9.282;2024-02-14T11:22:50;3.60;;;1.47;;
1366;SDS011;16877;48.810;9.282;2024-02-14T11:25:17;3.20;;;1.30;;
1366;SDS011;16877;48.810;9.282;2024-02-14T11:27:44;2.17;;;0.73;;
1366;SDS011;16877;48.810;9.282;2024-02-14T11:30:12;3.70;;;1.50;;
1366;SDS011;16877;48.810;9.282;2024-02-14T11:32:40;2.43;;;1.30;;
1366;SDS011;16877;48.810;9.282;2024-02-14T11:35:08;3.70;;;1.27;;
1366;SDS011;16877;48.810;9.282;2024-02-14T11:37:37;3.80;;;1.30;;
1366;SDS011;16877;48.810;9.282;2024-02-14T11:40:05;2.70;;;1.40;;
1366;SDS011;16877;48.810;9.282;2024-02-14T11:42:33;3.30;;;1.27;;
1366;SDS011;16877;48.810;9.282;2024-02-14T11:45:00;2.57;;;1.30;;
1366;SDS011;16877;48.810;9.282;2024-02-14T11:47:27;3.23;;;1.40;;
1366;SDS011;16877;48.810;9.282;2024-02-14T11:49:54;2.17;;;1.00;;
1366;SDS011;16877;48.810;9.282;2024-02-14T11:52:24;2.93;;;1.10;;
1366;SDS011;16877;48.810;9.282;2024-02-14T11:54:53;2.73;;;1.00;;
1366;SDS011;16877;48.810;9.282;2024-02-14T11:57:22;3.50;;;1.30;;
1366;SDS011;16877;48.810;9.282;2024-02-14T11:59:49;2.00;;;0.90;;
1366;SDS011;16877;48.810;9.282;2024-02-14T12:02:17;3.13;;;1.13;;
1366;SDS011;16877;48.810;9.282;2024-02-14T12:04:45;3.40;;;1.10;;
1366;SDS011;16877;48.810;9.282;2024-02-14T12:07:12;1.93;;;0.80;;
1366;SDS011;16877;48.810;9.282;2024-02-14T12:09:41;2.60;;;1.03;;
1366;SDS011;16877;48.810;9.282;2024-02-14T12:12:08;2.17;;;0.80;;
1366;SDS011;16877;48.810;9.282;2024-02-14T12:14:35;2.50;;;1.20;;
1366;SDS011;16877;48.810;9.282;2024-02-14T12:17:03;2.97;;;1.37;;
1366;SDS011;16877;48.810;9.282;2024-02-14T12:19:32;2.60;;;1.30;;
1366;SDS011;16877;48.810;9.282;2024-02-14T12:22:00;2.47;;;1.10;;
1366;SDS011;16877;48.810;9.282;2024-02-14T12:24:27;2.67;;;1.00;;
1366;SDS011;16877;48.810;9.282;2024-02-14T12:26:56;3.17;;;1.30;;
1366;SDS011;16877;48.810;9.282;2024-02-14T12:29:23;3.50;;;1.50;;
1366;SDS011;16877;48.810;9.282;2024-02-14T12:31:50;2.70;;;1.07;;
1366;SDS011;16877;48.810;9.282;2024-02-14T12:34:17;2.10;;;1.10;;
1366;SDS011;16877;48.810;9.282;2024-02-14T12:36:45;3.10;;;1.10;;
1366;SDS011;16877;48.810;9.282;2024-02-14T12:39:12;1.93;;;0.80;;
1366;SDS011;16877;48.810;9.282;2024-02-14T12:41:39;2.50;;;1.00;;
1366;SDS011;16877;48.810;9.282;2024-02-14T12:44:07;4.47;;;1.20;;
1366;SDS011;16877;48.810;9.282;2024-02-14T12:46:34;2.70;;;1.10;;
1366;SDS011;16877;48.810;9.282;2024-02-14T12:49:03;2.90;;;0.80;;
1366;SDS011;16877;48.810;9.282;2024-02-14T12:51:30;2.33;;;0.93;;
1366;SDS011;16877;48.810;9.282;2024-02-14T12:53:58;2.03;;;1.07;;
1366;SDS011;16877;48.810;9.282;2024-02-14T12:56:25;2.27;;;1.07;;
1366;SDS011;16877;48.810;9.282;2024-02-14T12:58:52;2.07;;;0.70;;
1366;SDS011;16877;48.810;9.282;2024-02-14T13:01:20;2.70;;;0.90;;
1366;SDS011;16877;48.810;9.282;2024-02-14T13:03:47;1.90;;;0.73;;
1366;SDS011;16877;48.810;9.282;2024-02-14T13:06:14;2.20;;;0.80;;
1366;SDS011;16877;48.810;9.282;2024-02-14T13:08:41;2.50;;;1.10;;
1366;SDS011;16877;48.810;9.282;2024-02-14T13:11:08;3.23;;;0.80;;
1366;SDS011;16877;48.810;9.282;2024-02-14T13:13:35;2.07;;;0.90;;
1366;SDS011;16877;48.810;9.282;2024-02-14T13:16:02;2.07;;;0.90;;
1366;SDS011;16877;48.810;9.282;2024-02-14T13:18:32;1.90;;;0.70;;
1366;SDS011;16877;48.810;9.282;2024-02-14T13:21:00;2.50;;;1.07;;
1366;SDS011;16877;48.810;9.282;2024-02-14T13:23:27;1.80;;;0.70;;
1366;SDS011;16877;48.810;9.282;2024-02-14T13:25:54;2.23;;;0.60;;
1366;SDS011;16877;48.810;9.282;2024-02-14T13:28:22;3.10;;;0.67;;
1366;SDS011;16877;48.810;9.282;2024-02-14T13:30:49;2.27;;;0.77;;
1366;SDS011;16877;48.810;9.282;2024-02-14T13:33:16;2.00;;;0.70;;
1366;SDS011;16877;48.810;9.282;2024-02-14T13:35:44;2.47;;;0.87;;
1366;SDS011;16877;48.810;9.282;2024-02-14T13:38:11;1.80;;;0.70;;
1366;SDS011;16877;48.810;9.282;2024-02-14T13:40:38;1.77;;;0.63;;
1366;SDS011;16877;48.810;9.282;2024-02-14T13:43:05;2.20;;;0.80;;
1366;SDS011;16877;48.810;9.282;2024-02-14T13:45:40;2.37;;;1.00;;
1366;SDS011;16877;48.810;9.282;2024-02-14T13:48:11;2.10;;;1.00;;
1366;SDS011;16877;48.810;9.282;2024-02-14T13:50:38;2.23;;;0.73;;
1366;SDS011;16877;48.810;9.282;2024-02-14T13:53:07;2.73;;;0.90;;
1366;SDS011;16877;48.810;9.282;2024-02-14T13:55:35;2.20;;;0.80;;
1366;SDS011;16877;48.810;9.282;2024-02-14T13:58:02;2.40;;;0.70;;
1366;SDS011;16877;48.810;9.282;2024-02-14T14:00:29;3.23;;;0.90;;
1366;SDS011;16877;48.810;9.282;2024-02-14T14:02:58;1.70;;;0.80;;
1366;SDS011;16877;48.810;9.282;2024-02-14T14:05:26;2.50;;;1.00;;
1366;SDS011;16877;48.810;9.282;2024-02-14T14:08:08;2.33;;;1.10;;
1366;SDS011;16877;48.810;9.282;2024-02-14T14:11:01;2.00;;;0.90;;
1366;SDS011;16877;48.810;9.282;2024-02-14T14:13:45;2.13;;;1.00;;
1366;SDS011;16877;48.810;9.282;2024-02-14T14:16:12;2.67;;;1.00;;
1366;SDS011;16877;48.810;9.282;2024-02-14T14:19:04;3.03;;;0.93;;
1366;SDS011;16877;48.810;9.282;2024-02-14T14:21:39;2.60;;;1.00;;
1366;SDS011;16877;48.810;9.282;2024-02-14T14:24:26;2.53;;;0.93;;
1366;SDS011;16877;48.810;9.282;2024-02-14T14:26:57;2.00;;;0.97;;
1366;SDS011;16877;48.810;9.282;2024-02-14T14:29:24;2.10;;;0.80;;
1366;SDS011;16877;48.810;9.282;2024-02-14T14:31:52;3.37;;;1.30;;
1366;SDS011;16877;48.810;9.282;2024-02-14T14:34:19;2.10;;;0.80;;
1366;SDS011;16877;48.810;9.282;2024-02-14T14:36:46;2.50;;;0.93;;
1366;SDS011;16877;48.810;9.282;2024-02-14T14:39:13;2.73;;;1.13;;
1366;SDS011;16877;48.810;9.282;2024-02-14T14:41:40;1.90;;;0.70;;
1366;SDS011;16877;48.810;9.282;2024-02-14T14:44:10;1.90;;;0.90;;
1366;SDS011;16877;48.810;9.282;2024-02-14T14:46:37;2.10;;;0.67;;
1366;SDS011;16877;48.810;9.282;2024-02-14T14:49:07;3.20;;;1.00;;
1366;SDS011;16877;48.810;9.282;2024-02-14T14:51:34;2.00;;;0.77;;
1366;SDS011;16877;48.810;9.282;2024-02-14T14:54:03;2.13;;;0.90;;
1366;SDS011;16877;48.810;9.282;2024-02-14T14:56:30;2.20;;;0.90;;
1366;SDS011;16877;48.810;9.282;2024-02-14T14:58:57;2.60;;;0.77;;
1366;SDS011;16877;48.810;9.282;2024-02-14T15:01:29;1.93;;;0.73;;
1366;SDS011;16877;48.810;9.282;2024-02-14T15:03:56;1.60;;;0.57;;